Time;durP1;ratioP1;P1;durP2;ratioP2;P2;SDS_P1;SDS_P2;PMS_P1;PMS_P2;Temp;Humidity;BMP_temperature;BMP_pressure;BME280_temperature;BME280_humidity;BME280_pressure;Samples;Min_cycle;Max_cycle;Signal;HPM_P1;HPM_P2
2023/03/30 00:01:23;;;;;;;2.83;1.50;;;;;;;-1.97;51.41;96963.09;5074198;28;20521;-58
2023/03/30 00:03:50;;;;;;;2.20;1.67;;;;;;;-2.08;51.52;96952.63;5074092;28;20045;-58
2023/03/30 00:06:21;;;;;;;1.83;1.30;;;;;;;-2.08;52.02;96955.19;5074058;28;20106;-59
2023/03/30 00:08:48;;;;;;;2.08;1.38;;;;;;;-2.12;51.86;96956.00;5074078;28;20045;-56
2023/03/30 00:11:17;;;;;;;7.38;1.38;;;;;;;-2.07;51.91;96953.53;5073963;28;20135;-58
2023/03/30 00:13:44;;;;;;;2.35;1.40;;;;;;;-2.06;52.08;96953.53;5073931;28;20060;-57
2023/03/30 00:16:14;;;;;;;2.63;1.55;;;;;;;-2.05;51.45;96946.69;5073850;28;20056;-60
2023/03/30 00:18:43;;;;;;;3.45;1.70;;;;;;;-2.09;52.13;96944.91;5073750;28;20075;-58
2023/03/30 00:21:11;;;;;;;1.45;1.02;;;;;;;-2.03;52.15;96945.91;5073255;28;20080;-58
2023/03/30 00:23:38;;;;;;;1.80;1.48;;;;;;;-2.04;52.52;96945.88;5073826;28;20558;-58
2023/03/30 00:26:07;;;;;;;3.05;1.88;;;;;;;-2.04;52.34;96941.59;5073843;28;20133;-58
2023/03/30 00:28:36;;;;;;;2.30;1.38;;;;;;;-2.01;52.54;96938.25;5073682;28;20075;-57
2023/03/30 00:31:03;;;;;;;3.78;1.83;;;;;;;-2.04;51.76;96927.94;5073633;28;20049;-58
2023/03/30 00:33:31;;;;;;;33.40;17.92;;;;;;;-2.07;51.82;96945.81;5073520;28;20130;-58
2023/03/30 00:35:58;;;;;;;5.03;2.72;;;;;;;-2.08;51.73;96944.94;5073486;28;20052;-57
2023/03/30 00:38:26;;;;;;;2.22;1.50;;;;;;;-1.99;50.99;96934.00;5073493;28;20040;-58
2023/03/30 00:40:54;;;;;;;2.17;1.50;;;;;;;-1.87;51.16;96935.91;5073432;28;20439;-58
2023/03/30 00:43:21;;;;;;;3.75;1.80;;;;;;;-1.87;50.94;96938.47;5073266;28;20465;-57
2023/03/30 00:45:50;;;;;;;3.30;1.88;;;;;;;-1.89;50.75;96935.03;5073304;28;20095;-58
2023/03/30 00:48:21;;;;;;;3.50;2.38;;;;;;;-2.00;50.92;96932.28;5073376;28;20047;-58
2023/03/30 00:50:52;;;;;;;5.97;3.45;;;;;;;-1.98;51.12;96937.44;5073303;28;20048;-59
2023/03/30 00:53:24;;;;;;;4.15;2.10;;;;;;;-2.04;51.03;96938.19;5103981;28;20153;-57
2023/03/30 00:55:53;;;;;;;3.13;2.22;;;;;;;-2.00;51.39;96936.53;5113976;28;20051;-58
2023/03/30 00:58:22;;;;;;;4.90;3.42;;;;;;;-2.11;51.66;96938.91;5113831;28;20050;-57
2023/03/30 01:00:51;;;;;;;3.40;3.03;;;;;;;-2.14;52.00;96943.97;5113734;28;20383;-57
2023/03/30 01:03:23;;;;;;;5.22;2.35;;;;;;;-2.10;51.78;96943.19;5113633;28;20071;-59
2023/03/30 01:05:52;;;;;;;2.22;1.60;;;;;;;-2.08;51.01;96947.50;5113718;28;20096;-57
2023/03/30 01:08:22;;;;;;;2.70;1.60;;;;;;;-1.96;49.91;96946.88;5113866;28;20048;-57
2023/03/30 01:10:51;;;;;;;3.40;2.50;;;;;;;-1.81;48.91;96948.84;5113617;28;20126;-57
2023/03/30 01:13:20;;;;;;;9.25;4.00;;;;;;;-1.71;49.66;96944.75;5113523;28;20465;-60
2023/03/30 01:16:11;;;;;;;4.22;2.35;;;;;;;-1.74;48.43;96943.84;5113602;28;20058;-60
2023/03/30 01:18:47;;;;;;;3.22;2.10;;;;;;;-1.64;48.94;96953.41;5113802;28;20129;-59
2023/03/30 01:21:54;;;;;;;2.33;1.70;;;;;;;-1.70;48.79;96951.63;5113602;28;20054;-57
2023/03/30 01:24:48;;;;;;;4.13;2.00;;;;;;;-1.67;48.19;96945.66;5064883;28;20039;-58
2023/03/30 01:27:39;;;;;;;1.88;1.70;;;;;;;-1.56;46.89;96953.53;5113549;28;20143;-59
2023/03/30 01:30:26;;;;;;;2.42;1.55;;;;;;;-1.31;46.08;96954.81;5113757;28;20044;-62
2023/03/30 01:33:17;;;;;;;3.38;1.90;;;;;;;-1.19;46.16;96950.69;5116201;28;20046;-59
2023/03/30 01:36:29;;;;;;;2.03;1.33;;;;;;;-1.08;45.07;96956.00;5117946;28;20079;-60
2023/03/30 01:39:20;;;;;;;1.80;1.40;;;;;;;-0.95;45.71;96957.03;5117683;28;20051;-60
2023/03/30 01:41:54;;;;;;;3.33;1.42;;;;;;;-0.84;44.73;96955.47;5117806;28;20098;-61
2023/03/30 01:44:31;;;;;;;3.38;1.45;;;;;;;-0.82;45.45;96950.34;5117360;28;20043;-59
2023/03/30 01:47:04;;;;;;;2.65;1.45;;;;;;;-0.79;44.80;96963.25;5117405;28;20677;-59
2023/03/30 01:49:41;;;;;;;2.33;1.55;;;;;;;-0.75;44.26;96965.03;5117603;28;20089;-59
2023/03/30 01:52:16;;;;;;;3.42;1.48;;;;;;;-0.72;43.80;96974.50;5117072;28;20047;-60
2023/03/30 01:54:49;;;;;;;3.35;1.85;;;;;;;-0.58;43.59;96964.38;5117304;28;20100;-58
2023/03/30 01:57:20;;;;;;;3.00;1.70;;;;;;;-0.53;43.38;96962.75;5117336;28;20134;-59
2023/03/30 01:59:53;;;;;;;2.50;1.42;;;;;;;-0.52;43.84;96956.75;5117178;28;20039;-58
2023/03/30 02:02:22;;;;;;;3.05;1.73;;;;;;;-0.55;44.13;96959.28;5117117;28;20481;-59
2023/03/30 02:04:53;;;;;;;3.17;1.70;;;;;;;-0.59;43.82;96970.38;5117213;28;20135;-59
2023/03/30 02:07:25;;;;;;;5.10;1.90;;;;;;;-0.57;44.08;96966.13;5117301;28;20122;-61
2023/03/30 02:09:58;;;;;;;3.03;1.55;;;;;;;-0.61;43.81;96969.50;5117340;28;20047;-57
2023/03/30 02:12:28;;;;;;;7.00;2.80;;;;;;;-0.61;44.40;96964.38;5117015;28;20052;-57
2023/03/30 02:14:58;;;;;;;9.25;5.53;;;;;;;-0.67;45.67;96966.00;5116912;28;20086;-58
2023/03/30 02:17:29;;;;;;;3.73;1.93;;;;;;;-0.79;45.07;96964.13;5116729;28;20087;-58
2023/03/30 02:19:57;;;;;;;3.10;1.85;;;;;;;-0.85;45.37;96966.59;5116794;28;20094;-59
2023/03/30 02:22:26;;;;;;;3.33;1.77;;;;;;;-0.96;45.47;96963.03;5116718;28;20496;-59
2023/03/30 02:24:56;;;;;;;2.00;1.25;;;;;;;-0.97;45.72;96963.88;5116712;28;20048;-58
2023/03/30 02:27:25;;;;;;;4.68;1.80;;;;;;;-1.03;45.86;96968.06;5116619;28;20546;-56
2023/03/30 02:29:53;;;;;;;2.60;1.63;;;;;;;-1.07;45.31;96971.44;5117009;28;20498;-57
2023/03/30 02:32:23;;;;;;;2.08;1.67;;;;;;;-1.07;45.60;96970.56;5116689;28;20055;-59
2023/03/30 02:35:21;;;;;;;3.53;3.13;;;;;;;-1.08;46.22;96974.81;5116554;28;20135;-59
2023/03/30 02:38:23;;;;;;;2.45;1.65;;;;;;;-1.15;45.72;96981.59;5101599;28;20521;-59
2023/03/30 02:41:00;;;;;;;2.75;1.50;;;;;;;-1.13;45.83;96984.19;5107647;28;20054;-58
2023/03/30 02:43:39;;;;;;;3.33;1.90;;;;;;;-1.22;46.83;96976.31;5115933;28;20122;-58
2023/03/30 02:46:19;;;;;;;3.00;1.83;;;;;;;-1.42;46.90;96982.00;5116332;28;20043;-61
2023/03/30 02:48:56;;;;;;;2.05;1.63;;;;;;;-1.35;46.86;96978.72;5116340;28;20082;-60
2023/03/30 02:51:37;;;;;;;2.42;1.67;;;;;;;-1.31;46.92;96975.34;5116327;28;20087;-56
2023/03/30 02:54:13;;;;;;;2.15;1.60;;;;;;;-1.34;46.43;96984.69;5116064;28;20572;-59
2023/03/30 02:56:47;;;;;;;1.70;1.60;;;;;;;-1.38;47.48;96988.94;5115808;28;20052;-58
2023/03/30 02:59:20;;;;;;;2.33;1.73;;;;;;;-1.48;47.14;96982.75;5116011;28;20052;-58
2023/03/30 03:01:53;;;;;;;3.25;1.52;;;;;;;-1.49;47.74;96981.03;5115863;28;20577;-58
2023/03/30 03:04:22;;;;;;;4.38;1.48;;;;;;;-1.59;48.35;96990.28;5115862;28;20127;-58
2023/03/30 03:06:51;;;;;;;5.28;1.63;;;;;;;-1.72;48.78;96980.66;5115888;28;20135;-57
2023/03/30 03:09:20;;;;;;;2.78;1.80;;;;;;;-1.73;49.38;96990.03;5115906;28;20047;-57
2023/03/30 03:11:48;;;;;;;2.88;1.83;;;;;;;-1.83;49.50;96993.28;5115747;28;20086;-57
2023/03/30 03:14:15;;;;;;;2.88;1.77;;;;;;;-1.92;49.39;96984.56;5115734;28;20075;-57
2023/03/30 03:16:43;;;;;;;3.38;1.63;;;;;;;-2.06;49.94;96988.56;5115539;28;20139;-58
2023/03/30 03:19:10;;;;;;;3.15;1.70;;;;;;;-2.10;50.27;96990.22;5115921;28;20083;-57
2023/03/30 03:21:38;;;;;;;2.65;1.75;;;;;;;-2.09;51.07;97001.31;5115833;28;20096;-59
2023/03/30 03:24:06;;;;;;;3.13;1.77;;;;;;;-2.14;51.21;96995.25;5115583;28;20044;-59
2023/03/30 03:26:34;;;;;;;2.10;1.48;;;;;;;-2.18;51.08;96997.75;5115866;28;20225;-57
2023/03/30 03:29:03;;;;;;;1.98;1.42;;;;;;;-2.20;51.16;96996.84;5115764;28;20543;-58
2023/03/30 03:31:30;;;;;;;6.65;1.85;;;;;;;-2.20;51.15;96993.44;5115516;28;20043;-59
2023/03/30 03:33:58;;;;;;;2.55;2.00;;;;;;;-2.18;51.72;97002.91;5115512;28;20052;-58
2023/03/30 03:36:25;;;;;;;2.25;1.60;;;;;;;-2.23;52.03;97007.03;5115285;28;20143;-59
2023/03/30 03:38:53;;;;;;;2.08;1.58;;;;;;;-2.34;52.87;97003.41;5115255;28;20390;-58
2023/03/30 03:41:20;;;;;;;2.45;1.40;;;;;;;-2.43;53.18;97009.22;5115240;28;20138;-58
2023/03/30 03:43:48;;;;;;;1.77;1.67;;;;;;;-2.59;53.38;97014.00;5115184;28;20047;-58
2023/03/30 03:46:17;;;;;;;110.28;60.65;;;;;;;-2.67;53.83;97013.84;5115179;28;20051;-58
2023/03/30 03:48:45;;;;;;;59.55;37.72;;;;;;;-2.71;53.87;97016.31;5115097;28;20061;-58
2023/03/30 03:51:12;;;;;;;8.15;6.38;;;;;;;-2.85;54.13;97018.56;5114897;28;20047;-57
2023/03/30 03:53:39;;;;;;;4.13;3.10;;;;;;;-2.92;54.35;97009.88;5114809;28;20568;-59
2023/03/30 03:56:08;;;;;;;5.38;2.55;;;;;;;-3.04;54.66;97020.72;5114164;28;20039;-58
2023/03/30 03:58:35;;;;;;;3.95;2.90;;;;;;;-3.20;55.03;97020.31;5115080;28;20056;-57
2023/03/30 04:01:03;;;;;;;4.45;2.60;;;;;;;-3.30;55.71;97018.38;5114726;28;20210;-58
2023/03/30 04:03:32;;;;;;;4.07;2.58;;;;;;;-3.43;55.68;97015.50;5114775;28;20048;-57
2023/03/30 04:06:01;;;;;;;4.10;3.50;;;;;;;-3.49;56.10;97017.06;5114694;28;20047;-59
2023/03/30 04:08:29;;;;;;;7.07;3.55;;;;;;;-3.53;56.58;97012.69;5114745;28;20043;-57
2023/03/30 04:10:56;;;;;;;9.07;3.80;;;;;;;-3.62;57.07;97026.09;5114674;28;20043;-57
2023/03/30 04:13:24;;;;;;;6.25;5.55;;;;;;;-3.65;57.24;97016.66;5114883;28;20062;-57
2023/03/30 04:15:51;;;;;;;6.05;3.42;;;;;;;-3.64;56.79;97026.06;5114695;28;20135;-58
2023/03/30 04:18:20;;;;;;;5.45;2.80;;;;;;;-3.63;56.87;97030.34;5114334;28;20105;-57
2023/03/30 04:20:50;;;;;;;2.47;1.88;;;;;;;-3.65;57.21;97026.88;5114195;28;20052;-57
2023/03/30 04:23:20;;;;;;;4.85;3.00;;;;;;;-3.75;57.25;97027.47;5114686;28;20044;-59
2023/03/30 04:25:47;;;;;;;4.85;3.00;;;;;;;-3.79;57.51;97035.88;5114251;28;20044;-59
2023/03/30 04:28:20;;;;;;;6.07;3.60;;;;;;;-3.74;57.74;97031.75;5114252;28;20039;-58
2023/03/30 04:30:47;;;;;;;10.52;7.40;;;;;;;-3.64;57.87;97032.88;5114264;28;20055;-59
2023/03/30 04:33:15;;;;;;;10.50;6.47;;;;;;;-3.62;57.47;97039.75;5114338;28;20051;-57
2023/03/30 04:35:43;;;;;;;6.85;5.10;;;;;;;-3.49;57.38;97037.53;5114354;28;20046;-59
2023/03/30 04:38:12;;;;;;;8.05;4.28;;;;;;;-3.36;56.70;97038.69;5114003;28;20132;-57
2023/03/30 04:40:40;;;;;;;10.38;4.65;;;;;;;-3.29;56.85;97040.56;5114004;28;20374;-57
2023/03/30 04:43:08;;;;;;;15.55;4.78;;;;;;;-3.22;56.88;97045.00;5114010;28;20500;-59
2023/03/30 04:45:35;;;;;;;5.57;4.15;;;;;;;-2.87;56.76;97048.38;5113921;28;20101;-57
2023/03/30 04:48:03;;;;;;;4.50;3.10;;;;;;;-2.26;54.66;97044.59;5113904;28;20048;-59
2023/03/30 04:50:30;;;;;;;5.03;3.90;;;;;;;-1.34;52.66;97052.31;5113850;28;20039;-58
2023/03/30 04:52:58;;;;;;;6.55;3.97;;;;;;;-0.16;51.09;97055.78;5113837;28;20124;-57
2023/03/30 04:55:26;;;;;;;1.90;1.70;;;;;;;0.97;48.67;97052.66;5113772;28;20481;-59
2023/03/30 04:57:53;;;;;;;4.10;2.33;;;;;;;2.03;45.52;97057.63;5113581;28;20550;-58
2023/03/30 05:00:22;;;;;;;5.80;2.90;;;;;;;3.05;43.69;97053.56;5113945;28;20049;-58
2023/03/30 05:02:49;;;;;;;2.72;2.50;;;;;;;4.08;42.03;97062.84;5113987;28;20139;-58
2023/03/30 05:05:17;;;;;;;2.58;1.70;;;;;;;4.80;40.89;97061.63;5113693;28;20054;-57
2023/03/30 05:07:45;;;;;;;4.28;1.63;;;;;;;5.53;39.00;97060.19;5113885;28;20108;-58
2023/03/30 05:10:12;;;;;;;2.53;1.42;;;;;;;6.41;37.16;97059.25;5113685;28;20043;-57
2023/03/30 05:12:41;;;;;;;1.98;1.38;;;;;;;7.14;35.27;97057.34;5113731;28;20082;-58
2023/03/30 05:15:09;;;;;;;4.72;1.85;;;;;;;7.92;33.54;97053.41;5113694;28;20055;-58
2023/03/30 05:17:37;;;;;;;3.17;1.75;;;;;;;8.69;33.00;97052.72;5113531;28;20136;-58
2023/03/30 05:20:07;;;;;;;2.20;1.80;;;;;;;9.31;30.55;97058.25;5113759;28;20100;-58
2023/03/30 05:22:34;;;;;;;2.22;1.45;;;;;;;9.91;31.64;97061.09;5113509;28;20050;-59
2023/03/30 05:25:02;;;;;;;1.70;1.60;;;;;;;10.47;30.47;97056.06;5113467;28;20404;-58
2023/03/30 05:27:30;;;;;;;2.38;2.13;;;;;;;10.88;29.23;97053.13;5113575;28;20075;-58
2023/03/30 05:29:59;;;;;;;2.10;1.90;;;;;;;11.29;27.99;97054.47;5113434;28;20047;-59
2023/03/30 05:32:26;;;;;;;2.75;1.90;;;;;;;11.85;27.92;97057.84;5113408;28;20136;-58
2023/03/30 05:34:56;;;;;;;2.90;1.95;;;;;;;12.38;27.13;97059.47;5113633;28;20047;-59
2023/03/30 05:37:24;;;;;;;2.50;1.80;;;;;;;12.72;22.53;97046.84;5113302;28;20051;-59
2023/03/30 05:39:52;;;;;;;3.45;2.08;;;;;;;12.64;21.72;97057.63;5113538;28;20501;-58
2023/03/30 05:42:19;;;;;;;3.88;1.80;;;;;;;12.92;22.24;97066.22;5113310;28;20078;-58
2023/03/30 05:44:46;;;;;;;2.47;1.90;;;;;;;12.44;21.34;97058.41;5113370;28;20047;-58
2023/03/30 05:47:16;;;;;;;2.50;1.65;;;;;;;12.01;21.68;97063.38;5113358;28;20086;-58
2023/03/30 05:49:43;;;;;;;5.72;2.50;;;;;;;12.22;21.88;97064.41;5113231;28;20048;-60
2023/03/30 05:52:12;;;;;;;3.20;2.15;;;;;;;12.66;21.86;97061.97;5113035;28;20090;-60
2023/03/30 05:54:39;;;;;;;3.45;1.85;;;;;;;12.69;21.81;97070.59;5113480;28;20529;-58
2023/03/30 05:57:06;;;;;;;1.75;1.65;;;;;;;12.53;20.92;97061.59;5113053;28;20052;-60
2023/03/30 05:59:33;;;;;;;2.38;1.80;;;;;;;12.38;22.96;97066.50;5113097;28;20039;-59
2023/03/30 06:02:00;;;;;;;4.18;2.15;;;;;;;12.63;20.91;97068.19;5113035;28;20496;-58
2023/03/30 06:04:30;;;;;;;3.25;1.60;;;;;;;13.04;21.62;97066.66;5113109;28;20048;-60
2023/03/30 06:06:57;;;;;;;3.88;1.73;;;;;;;13.65;20.15;97065.09;5113034;28;20101;-59
2023/03/30 06:09:25;;;;;;;2.85;1.92;;;;;;;13.42;19.50;97071.28;5113153;28;20051;-60
2023/03/30 06:11:53;;;;;;;2.55;1.73;;;;;;;13.13;19.65;97074.16;5113016;28;20050;-60
2023/03/30 06:14:20;;;;;;;2.45;1.75;;;;;;;13.17;20.07;97073.13;5112988;28;20486;-58
2023/03/30 06:16:47;;;;;;;2.33;2.13;;;;;;;12.84;18.78;97077.03;5112824;28;20142;-59
2023/03/30 06:19:15;;;;;;;2.35;1.90;;;;;;;12.40;19.50;97082.19;5116217;28;20047;-60
2023/03/30 06:21:43;;;;;;;2.75;1.83;;;;;;;12.22;19.49;97095.91;5116835;28;20104;-59
2023/03/30 06:24:11;;;;;;;2.50;1.80;;;;;;;12.23;20.78;97094.13;5116691;28;20079;-60
2023/03/30 06:26:39;;;;;;;3.03;1.80;;;;;;;12.50;20.23;97091.41;5116794;28;20105;-60
2023/03/30 06:29:06;;;;;;;4.35;2.80;;;;;;;12.66;19.71;97093.44;5116798;28;20051;-59
2023/03/30 06:31:34;;;;;;;3.10;1.70;;;;;;;12.87;19.85;97092.66;5116581;28;20047;-60
2023/03/30 06:34:01;;;;;;;1.80;1.45;;;;;;;12.59;19.75;97091.09;5116599;28;20044;-60
2023/03/30 06:36:28;;;;;;;2.10;1.75;;;;;;;12.26;19.55;97102.72;5116823;28;20055;-59
2023/03/30 06:38:56;;;;;;;3.70;1.50;;;;;;;11.79;20.37;97098.22;5116557;28;20055;-60
2023/03/30 06:41:24;;;;;;;2.53;1.65;;;;;;;11.61;20.03;97099.69;5116432;28;20506;-59
2023/03/30 06:43:51;;;;;;;2.13;1.60;;;;;;;11.79;19.91;97092.97;5116430;28;20044;-59
2023/03/30 06:46:19;;;;;;;2.13;1.73;;;;;;;11.87;18.90;97092.72;5116450;28;20079;-59
2023/03/30 06:48:46;;;;;;;1.98;1.40;;;;;;;12.01;19.82;97092.22;5116487;28;20075;-59
2023/03/30 06:51:13;;;;;;;1.48;1.30;;;;;;;12.36;19.99;97094.53;5116240;28;20048;-60
2023/03/30 06:53:41;;;;;;;2.67;1.70;;;;;;;12.21;19.69;97091.56;5116061;28;20063;-59
2023/03/30 06:56:10;;;;;;;2.67;1.88;;;;;;;12.20;19.40;97094.25;5116163;28;20664;-59
2023/03/30 06:58:37;;;;;;;2.20;1.70;;;;;;;12.28;19.13;97104.47;5115937;28;20054;-58
2023/03/30 07:01:13;;;;;;;2.42;1.48;;;;;;;12.43;19.03;97103.91;5115947;28;20051;-60
2023/03/30 07:03:40;;;;;;;4.95;1.52;;;;;;;12.10;19.23;97096.34;5115967;28;20047;-59
2023/03/30 07:06:09;;;;;;;3.40;1.73;;;;;;;12.20;19.57;97100.34;5115903;28;20122;-60
2023/03/30 07:08:36;;;;;;;1.60;1.48;;;;;;;11.99;19.26;97101.94;5116131;28;20043;-59
2023/03/30 07:11:04;;;;;;;2.45;1.48;;;;;;;12.21;19.43;97109.94;5115818;28;20047;-60
2023/03/30 07:13:33;;;;;;;2.40;1.60;;;;;;;12.15;19.00;97104.03;5115838;28;20379;-59
2023/03/30 07:16:00;;;;;;;2.35;1.60;;;;;;;12.12;20.43;97108.50;5115884;28;20044;-59
2023/03/30 07:18:27;;;;;;;3.92;1.85;;;;;;;12.18;19.72;97117.03;5115590;28;20052;-59
2023/03/30 07:20:57;;;;;;;3.88;1.83;;;;;;;11.92;19.19;97108.31;5115620;28;20052;-60
2023/03/30 07:23:24;;;;;;;4.10;1.73;;;;;;;11.98;19.32;97111.56;5115740;28;20101;-60
2023/03/30 07:25:52;;;;;;;3.72;1.42;;;;;;;11.87;19.43;97119.78;5115713;28;20045;-59
2023/03/30 07:28:20;;;;;;;3.20;1.85;;;;;;;11.73;19.77;97117.63;5115616;28;20531;-59
2023/03/30 07:30:49;;;;;;;3.30;1.45;;;;;;;11.65;20.76;97110.94;5114388;28;20124;-59
2023/03/30 07:33:17;;;;;;;1.90;1.70;;;;;;;11.70;19.88;97104.63;5115568;28;20144;-60
2023/03/30 07:35:45;;;;;;;5.22;1.85;;;;;;;11.81;21.31;97121.75;5115676;28;20676;-60
2023/03/30 07:38:13;;;;;;;1.98;1.65;;;;;;;12.38;20.01;97108.47;5115347;28;20051;-59
2023/03/30 07:40:40;;;;;;;4.70;1.98;;;;;;;12.31;20.81;97114.84;5115499;28;20047;-59
2023/03/30 07:43:07;;;;;;;5.03;2.00;;;;;;;12.43;19.63;97111.75;5115310;28;20048;-59
2023/03/30 07:45:34;;;;;;;6.70;2.17;;;;;;;12.40;19.70;97111.03;5115281;28;20097;-59
2023/03/30 07:48:03;;;;;;;3.33;1.95;;;;;;;12.16;18.73;97111.00;5115124;28;20039;-59
2023/03/30 07:50:31;;;;;;;2.63;2.10;;;;;;;11.88;18.63;97102.28;5115101;28;20134;-60
2023/03/30 07:52:58;;;;;;;3.40;2.03;;;;;;;12.01;21.21;97106.19;5114357;28;20047;-59
2023/03/30 07:55:27;;;;;;;3.65;2.38;;;;;;;12.30;20.19;97095.63;5115070;28;20053;-59
2023/03/30 07:57:56;;;;;;;4.13;2.10;;;;;;;12.63;21.33;97097.94;5114975;28;20140;-59
2023/03/30 08:00:23;;;;;;;2.20;1.58;;;;;;;13.05;19.48;97095.47;5114962;28;20444;-59
2023/03/30 08:02:51;;;;;;;2.00;1.42;;;;;;;13.31;19.35;97104.09;5114950;28;20078;-60
2023/03/30 08:05:19;;;;;;;2.97;1.70;;;;;;;13.25;18.06;97102.56;5114840;28;20059;-59
2023/03/30 08:07:46;;;;;;;2.05;1.80;;;;;;;13.42;18.64;97100.19;5114733;28;20547;-59
2023/03/30 08:10:14;;;;;;;3.90;1.50;;;;;;;13.54;19.64;97096.25;5114599;28;20052;-59
2023/03/30 08:12:41;;;;;;;1.55;1.33;;;;;;;13.44;19.86;97103.59;5114598;28;20058;-59
2023/03/30 08:15:10;;;;;;;3.35;2.10;;;;;;;13.64;18.79;97101.03;5114593;28;20092;-59
2023/03/30 08:17:37;;;;;;;3.00;1.77;;;;;;;13.67;18.87;97091.31;5114452;28;20044;-59
2023/03/30 08:20:09;;;;;;;2.60;2.10;;;;;;;13.48;19.79;97087.63;5114403;28;20058;-59
2023/03/30 08:22:38;;;;;;;2.88;1.67;;;;;;;13.45;18.05;97081.66;5114579;28;20048;-60
2023/03/30 08:25:06;;;;;;;3.50;2.05;;;;;;;13.64;19.23;97093.13;5114462;28;20039;-59
2023/03/30 08:27:33;;;;;;;2.35;1.92;;;;;;;13.69;18.26;97074.56;5114327;28;20096;-59
2023/03/30 08:30:00;;;;;;;4.70;2.45;;;;;;;13.92;19.49;97091.13;5114269;28;20052;-60
2023/03/30 08:32:27;;;;;;;2.95;1.73;;;;;;;14.11;19.35;97092.94;5114472;28;20044;-60
2023/03/30 08:34:54;;;;;;;4.40;1.88;;;;;;;14.20;21.36;97084.66;5114252;28;20135;-59
2023/03/30 08:37:22;;;;;;;3.67;2.28;;;;;;;14.33;20.21;97087.59;5114110;28;20126;-59
2023/03/30 08:39:50;;;;;;;3.08;2.00;;;;;;;14.37;16.98;97081.31;5114136;28;20060;-59
2023/03/30 08:42:36;;;;;;;4.15;1.80;;;;;;;14.03;18.78;97078.38;5113736;28;20105;-59
2023/03/30 08:45:04;;;;;;;2.90;1.95;;;;;;;14.43;17.45;97074.91;5114382;28;20511;-60
2023/03/30 08:47:34;;;;;;;1.70;1.40;;;;;;;14.32;18.01;97064.84;5114068;28;20052;-60
2023/03/30 08:50:08;;;;;;;2.15;1.50;;;;;;;13.68;17.28;97053.59;5114072;28;20108;-60
2023/03/30 08:52:36;;;;;;;2.90;1.27;;;;;;;13.10;18.01;97063.78;5113493;28;20048;-60
2023/03/30 08:55:06;;;;;;;1.55;1.08;;;;;;;13.07;17.94;97059.50;5113104;28;20040;-59
2023/03/30 08:57:46;;;;;;;2.15;1.15;;;;;;;13.37;18.25;97063.59;5113042;28;20105;-60
2023/03/30 09:00:21;;;;;;;4.28;1.80;;;;;;;13.57;17.47;97056.69;5113098;28;20050;-59
2023/03/30 09:02:51;;;;;;;1.77;1.40;;;;;;;13.40;17.46;97055.56;5113026;28;20097;-59
2023/03/30 09:05:26;;;;;;;1.20;1.10;;;;;;;13.34;16.91;97054.03;5113073;28;20071;-60
2023/03/30 09:08:01;;;;;;;1.20;1.10;;;;;;;13.22;19.21;97051.94;5112921;28;20537;-60
2023/03/30 09:10:36;;;;;;;1.65;1.38;;;;;;;13.11;18.45;97044.47;5112837;28;20075;-60
2023/03/30 09:13:06;;;;;;;1.95;1.55;;;;;;;13.48;20.32;97035.06;5113000;28;20054;-62
2023/03/30 09:15:38;;;;;;;2.10;1.33;;;;;;;13.42;20.89;97029.25;5113045;28;20097;-60
2023/03/30 09:18:10;;;;;;;1.00;0.90;;;;;;;13.53;18.03;97032.28;5113047;28;20577;-61
2023/03/30 09:20:40;;;;;;;1.48;1.17;;;;;;;13.42;16.18;97027.44;5113066;28;20058;-59
2023/03/30 09:23:14;;;;;;;2.15;1.23;;;;;;;13.26;17.36;97014.97;5112809;28;20040;-60
2023/03/30 09:25:49;;;;;;;0.93;0.90;;;;;;;13.31;17.85;97020.03;5112682;28;20043;-61
2023/03/30 09:28:23;;;;;;;1.30;1.10;;;;;;;13.28;18.30;97014.91;5112731;28;20130;-60
2023/03/30 09:30:54;;;;;;;1.30;1.08;;;;;;;13.44;17.38;97001.09;5112646;28;20051;-61
2023/03/30 09:33:31;;;;;;;1.02;1.00;;;;;;;13.73;16.45;97004.31;5112865;28;20055;-61
2023/03/30 09:36:13;;;;;;;1.95;1.10;;;;;;;13.68;17.52;97003.63;5112645;28;20091;-60
2023/03/30 09:38:41;;;;;;;2.15;1.00;;;;;;;14.06;18.67;97005.50;5112403;28;20055;-61
2023/03/30 09:41:23;;;;;;;4.13;1.08;;;;;;;14.32;18.81;97012.22;5112591;28;20127;-60
2023/03/30 09:43:52;;;;;;;1.65;0.95;;;;;;;14.61;16.13;97009.16;5112554;28;20478;-60
2023/03/30 09:46:19;;;;;;;2.25;0.98;;;;;;;14.48;16.39;96995.72;5112668;28;20560;-59
2023/03/30 09:48:48;;;;;;;2.58;1.02;;;;;;;14.58;17.04;97007.53;5112655;28;20083;-60
2023/03/30 09:51:23;;;;;;;1.35;1.05;;;;;;;14.54;18.27;97003.31;5112487;28;20100;-61
2023/03/30 09:53:52;;;;;;;1.30;0.90;;;;;;;14.38;17.79;96995.28;5070428;28;1281390;-60
2023/03/30 09:56:27;;;;;;;1.88;0.80;;;;;;;14.44;17.28;96996.78;5117482;28;20044;-60
2023/03/30 09:58:55;;;;;;;1.70;1.30;;;;;;;14.09;16.88;96985.16;5117186;28;20051;-59
2023/03/30 10:01:34;;;;;;;3.47;1.50;;;;;;;13.98;18.34;96982.19;5117162;28;20131;-60
2023/03/30 10:04:11;;;;;;;2.55;1.77;;;;;;;14.39;20.95;96986.50;5117263;28;20501;-60
2023/03/30 10:06:47;;;;;;;3.88;2.10;;;;;;;14.68;21.50;96976.34;5117144;28;20048;-59
2023/03/30 10:09:15;;;;;;;2.08;1.30;;;;;;;14.94;18.07;96987.44;5117195;28;20122;-60
2023/03/30 10:11:46;;;;;;;1.20;1.10;;;;;;;14.96;18.08;96980.31;5117136;28;20044;-60
2023/03/30 10:14:30;;;;;;;4.32;1.30;;;;;;;14.66;15.70;96980.84;5117156;28;20051;-60
2023/03/30 10:16:59;;;;;;;0.90;0.82;;;;;;;14.52;11.87;96966.56;5116983;28;20047;-60
2023/03/30 10:19:27;;;;;;;1.02;0.90;;;;;;;14.34;12.93;96951.63;5116980;28;20052;-60
2023/03/30 10:21:57;;;;;;;0.73;0.70;;;;;;;14.36;13.94;96947.16;5116781;28;20043;-60
2023/03/30 10:24:26;;;;;;;2.53;0.90;;;;;;;14.64;16.70;96959.88;5116842;28;20079;-60
2023/03/30 10:26:57;;;;;;;0.93;0.88;;;;;;;14.87;17.72;96954.44;5116744;28;20047;-60
2023/03/30 10:29:26;;;;;;;;;;;;;;;14.89;16.42;96960.47;5117113;28;20094;-60
2023/03/30 10:31:59;;;;;;;1.63;1.08;;;;;;;14.90;16.94;96962.19;5116731;28;20436;-60
2023/03/30 10:34:36;;;;;;;1.05;0.90;;;;;;;14.56;16.51;96953.22;5116761;28;20408;-60
2023/03/30 10:37:09;;;;;;;1.10;1.00;;;;;;;14.34;16.80;96936.69;5116585;28;20417;-60
2023/03/30 10:39:40;;;;;;;1.60;1.10;;;;;;;14.58;17.66;96939.09;5116511;28;20134;-59
2023/03/30 10:42:14;;;;;;;1.10;0.82;;;;;;;14.76;17.17;96945.25;5116476;28;20047;-61
2023/03/30 10:44:46;;;;;;;1.48;0.73;;;;;;;14.92;15.73;96944.53;5116569;28;20047;-60
2023/03/30 10:47:37;;;;;;;2.42;0.95;;;;;;;14.85;15.90;96941.34;5116405;28;20051;-60
2023/03/30 10:50:16;;;;;;;1.58;1.00;;;;;;;14.98;15.75;96935.47;5116384;28;20048;-60
2023/03/30 10:52:53;;;;;;;1.90;1.20;;;;;;;14.99;16.64;96930.13;5116115;28;20375;-60
2023/03/30 10:55:25;;;;;;;1.52;0.95;;;;;;;14.61;14.47;96925.78;5116280;28;20409;-60
2023/03/30 10:58:02;;;;;;;1.10;1.00;;;;;;;14.61;15.31;96930.19;5116229;28;20051;-60
2023/03/30 11:00:45;;;;;;;1.15;0.90;;;;;;;14.23;13.90;96926.66;5116004;28;20043;-59
2023/03/30 11:03:18;;;;;;;3.90;1.10;;;;;;;14.00;15.44;96925.94;5116068;28;20050;-59
2023/03/30 11:05:50;;;;;;;1.60;0.90;;;;;;;14.32;14.50;96929.78;5116146;28;20054;-59
2023/03/30 11:08:22;;;;;;;1.20;0.90;;;;;;;14.05;12.44;96928.38;5116112;28;20126;-60
2023/03/30 11:10:53;;;;;;;1.25;0.90;;;;;;;13.86;13.51;96918.72;5116199;28;20051;-60
2023/03/30 11:13:24;;;;;;;1.63;1.00;;;;;;;13.82;14.52;96914.47;5116153;28;20044;-60
2023/03/30 11:15:54;;;;;;;1.85;0.90;;;;;;;13.99;13.44;96907.59;5115909;28;20096;-60
2023/03/30 11:18:27;;;;;;;1.08;1.00;;;;;;;14.03;17.38;96903.94;5116090;28;20044;-60
2023/03/30 11:21:00;;;;;;;2.05;0.90;;;;;;;14.43;13.72;96897.69;5115782;28;20097;-59
2023/03/30 11:23:39;;;;;;;0.82;0.80;;;;;;;14.55;13.89;96902.38;5115627;28;20059;-59
2023/03/30 11:26:11;;;;;;;0.88;0.88;;;;;;;14.62;15.72;96901.16;5115625;28;20043;-59
2023/03/30 11:28:55;;;;;;;0.80;0.60;;;;;;;14.83;12.87;96897.56;5115555;28;20043;-60
2023/03/30 11:31:42;;;;;;;1.17;0.75;;;;;;;14.70;13.91;96905.19;5115629;28;20044;-59
2023/03/30 11:34:19;;;;;;;0.85;0.73;;;;;;;14.80;14.69;96895.06;5115664;28;20048;-59
2023/03/30 11:36:53;;;;;;;0.80;0.80;;;;;;;14.89;15.25;96886.72;5115829;28;20084;-59
2023/03/30 11:39:28;;;;;;;3.22;0.90;;;;;;;14.89;14.08;96889.34;5115445;28;20462;-60
2023/03/30 11:42:02;;;;;;;1.52;1.05;;;;;;;15.08;15.36;96877.91;5115359;28;20493;-59
2023/03/30 11:44:31;;;;;;;1.58;1.00;;;;;;;14.93;13.57;96879.53;5115272;28;20076;-60
2023/03/30 11:47:15;;;;;;;1.45;1.25;;;;;;;14.91;16.05;96874.34;5115311;28;20130;-59
2023/03/30 11:49:52;;;;;;;0.95;0.85;;;;;;;14.75;14.27;96863.69;5115132;28;20135;-60
2023/03/30 11:52:31;;;;;;;1.90;1.67;;;;;;;14.48;18.91;96864.13;5115010;28;20056;-60